Charlotte — C6DH3 — position and weather

sailwx.info

Track history (hours):
 
Tides and Currents Weather Stations Pressure Air Temp Water Temp Dewpoint Dewpoint Depression Visibility Wind Speed Wind Dir Waves Ship Positions

Charlotte

Last reported at 2018-Jun-15 12:54 UTC. Time now 2018-Jun-19 21:24 UTC.
Position N 25°28' W 080°01'.

Length 90 m; draft 4.1 m.

Type: Cargo ship. MMSI: 311000674.

Date/timePositionNaut miles runAvg speedWind from/ knotsBaromVisibWave heightAir tempDewpointWater temp
2018-Jun-15 12:54N 25°28' W 080°01'3 8.6
2018-Jun-15 12:30N 25°31' W 080°00'4 8.6
2018-Jun-15 12:00N 25°35' W 079°60'4 8.5
2018-Jun-15 11:31N 25°40' W 080°00'4 8.9
2018-Jun-15 11:01N 25°44' W 080°01'5 9.3
2018-Jun-15 10:30N 25°49' W 080°01'5 9.7
2018-Jun-15 10:00N 25°53' W 080°02'611.0
2018-Jun-15 09:29N 25°59' W 080°03'611.0
2018-Jun-15 08:59N 26°04' W 080°04'2 4.9
2018-Jun-15 08:30N 26°04' W 080°07'0 0.2
2018-Jun-15 08:00N 26°04' W 080°07'0 0.0
2018-Jun-15 07:30N 26°04' W 080°07'0 0.0
2018-Jun-15 07:00N 26°04' W 080°07'0 0.0
2018-Jun-15 06:30N 26°04' W 080°07'0 0.0
2018-Jun-15 06:00N 26°04' W 080°07'0 0.0
2018-Jun-15 05:30N 26°04' W 080°07'0 0.0
2018-Jun-15 05:00N 26°04' W 080°07'0 0.0
2018-Jun-15 04:30N 26°04' W 080°07'0 0.0
2018-Jun-15 04:00N 26°04' W 080°07'0 0.0
2018-Jun-15 03:30N 26°04' W 080°07'0 0.0
2018-Jun-15 03:01N 26°04' W 080°07'0 0.0
2018-Jun-15 02:31N 26°04' W 080°07'0 0.0
2018-Jun-15 02:01N 26°04' W 080°07'0 0.0
2018-Jun-15 01:31N 26°04' W 080°07'0 0.0
2018-Jun-15 01:00N 26°04' W 080°07'0 0.0
2018-Jun-15 00:31N 26°04' W 080°07'0 0.0
2018-Jun-15 00:00N 26°04' W 080°07'1 2.6
2018-Jun-14 23:31N 26°06' W 080°07'0 0.1
2018-Jun-14 23:01N 26°06' W 080°07'0 0.0
2018-Jun-14 22:31N 26°06' W 080°07'0 0.0
2018-Jun-14 22:01N 26°06' W 080°07'0 0.0
2018-Jun-14 21:30N 26°06' W 080°07'0 0.0
2018-Jun-14 21:01N 26°06' W 080°07'0 0.0
2018-Jun-14 20:30N 26°06' W 080°07'0 0.0
2018-Jun-14 20:00N 26°06' W 080°07'0 0.0
2018-Jun-14 19:30N 26°06' W 080°07'0 0.0
2018-Jun-14 19:00N 26°06' W 080°07'0 0.0
2018-Jun-14 18:29N 26°06' W 080°07'0 0.0
2018-Jun-14 18:00N 26°06' W 080°07'0 0.0
2018-Jun-14 17:30N 26°06' W 080°07'0 0.0
2018-Jun-14 17:00N 26°06' W 080°07'0 0.0
2018-Jun-14 16:30N 26°06' W 080°07'0 0.0
2018-Jun-14 16:00N 26°06' W 080°07'0 0.0
2018-Jun-14 15:30N 26°06' W 080°07'0 0.0
2018-Jun-14 14:59N 26°06' W 080°07'0 0.0
2018-Jun-14 14:30N 26°06' W 080°07'0 0.0
2018-Jun-14 14:00N 26°06' W 080°07'0 0.0
2018-Jun-14 13:30N 26°06' W 080°07'0 0.0
2018-Jun-14 13:00N 26°06' W 080°07'0 0.0
2018-Jun-14 12:30N 26°06' W 080°07'0 0.0
2018-Jun-14 12:01N 26°06' W 080°07'0 0.0
2018-Jun-14 11:31N 26°06' W 080°07'2 4.2
2018-Jun-14 11:01N 26°06' W 080°05'1 2.2
2018-Jun-14 10:30N 26°07' W 080°05'0 0.1
2018-Jun-14 10:00N 26°07' W 080°05'0 0.0
2018-Jun-14 09:30N 26°07' W 080°05'0 0.0
2018-Jun-14 09:00N 26°07' W 080°05'0 0.0
2018-Jun-14 08:30N 26°07' W 080°05'0 0.0
2018-Jun-14 08:00N 26°07' W 080°05'0 0.0
2018-Jun-14 07:30N 26°07' W 080°05'0 0.0
2018-Jun-14 07:00N 26°07' W 080°05'0 0.0
2018-Jun-14 06:30N 26°07' W 080°05'0 0.0
2018-Jun-14 06:00N 26°07' W 080°05'0 0.0
2018-Jun-14 05:21N 26°07' W 080°05'0 0.1
2018-Jun-14 04:51N 26°07' W 080°05'0 0.0
2018-Jun-14 04:21N 26°07' W 080°05'0 0.0
2018-Jun-14 03:51N 26°07' W 080°05'0 0.0
2018-Jun-14 03:24N 26°07' W 080°05'0 0.0
2018-Jun-14 02:48N 26°07' W 080°05'0 0.0
2018-Jun-14 02:23N 26°07' W 080°05'0 0.0
2018-Jun-14 01:53N 26°07' W 080°05'0 0.0
2018-Jun-14 01:23N 26°07' W 080°05'0 0.0
2018-Jun-14 00:53N 26°07' W 080°05'0 0.0
2018-Jun-14 00:23N 26°07' W 080°05'0 0.0
2018-Jun-13 23:53N 26°07' W 080°05'0 0.0
2018-Jun-13 23:23N 26°07' W 080°05'0 0.0
2018-Jun-13 22:56N 26°07' W 080°05'0 0.0
2018-Jun-13 22:26N 26°07' W 080°05'0 0.0
2018-Jun-13 21:56N 26°07' W 080°05'0 0.0
2018-Jun-13 21:26N 26°07' W 080°05'0 0.0
2018-Jun-13 20:56N 26°07' W 080°05'0 0.0
2018-Jun-13 20:26N 26°07' W 080°05'0 0.0
2018-Jun-13 19:56N 26°07' W 080°05'0 0.0
2018-Jun-13 19:26N 26°07' W 080°05'0 0.0
2018-Jun-13 18:56N 26°07' W 080°05'0 0.0
2018-Jun-13 18:29N 26°07' W 080°05'0 0.0
2018-Jun-13 17:59N 26°07' W 080°05'0 0.0
2018-Jun-13 17:29N 26°07' W 080°05'0 0.0
2018-Jun-13 16:59N 26°07' W 080°05'0 0.0
2018-Jun-13 16:29N 26°07' W 080°04'0 0.0
2018-Jun-13 15:59N 26°07' W 080°05'0 0.0
2018-Jun-13 15:29N 26°07' W 080°04'0 0.0
2018-Jun-13 14:59N 26°07' W 080°05'1 2.4
2018-Jun-13 14:30N 26°06' W 080°04'510.5
2018-Jun-13 14:00N 26°01' W 080°01'611.9
2018-Jun-13 13:30N 25°55' W 080°02'612.4
2018-Jun-13 13:00N 25°49' W 080°01'611.8
2018-Jun-13 12:31N 25°43' W 080°00'612.0
2018-Jun-13 12:00N 25°37' W 079°60'612.0
2018-Jun-13 11:30N 25°31' W 080°00'612.0
2018-Jun-13 11:00N 25°25' W 080°00'  
Track history (hours):
 
Tides and Currents Weather Stations Pressure Air Temp Water Temp Dewpoint Dewpoint Depression Visibility Wind Speed Wind Dir Waves Ship Positions

Charlotte

Last reported at 2018-Jun-15 12:54 UTC. Time now 2018-Jun-19 21:24 UTC.
Position N 25°28' W 080°01'.

Length 90 m; draft 4.1 m.

Type: Cargo ship. MMSI: 311000674.

Date/timePositionNaut miles runAvg speedWind from/ knotsBaromVisibWave heightAir tempDewpointWater temp
2018-Jun-15 12:54N 25°28' W 080°01'3 8.6
2018-Jun-15 12:30N 25°31' W 080°00'4 8.6
2018-Jun-15 12:00N 25°35' W 079°60'4 8.5
2018-Jun-15 11:31N 25°40' W 080°00'4 8.9
2018-Jun-15 11:01N 25°44' W 080°01'5 9.3
2018-Jun-15 10:30N 25°49' W 080°01'5 9.7
2018-Jun-15 10:00N 25°53' W 080°02'611.0
2018-Jun-15 09:29N 25°59' W 080°03'611.0
2018-Jun-15 08:59N 26°04' W 080°04'2 4.9
2018-Jun-15 08:30N 26°04' W 080°07'0 0.2
2018-Jun-15 08:00N 26°04' W 080°07'0 0.0
2018-Jun-15 07:30N 26°04' W 080°07'0 0.0
2018-Jun-15 07:00N 26°04' W 080°07'0 0.0
2018-Jun-15 06:30N 26°04' W 080°07'0 0.0
2018-Jun-15 06:00N 26°04' W 080°07'0 0.0
2018-Jun-15 05:30N 26°04' W 080°07'0 0.0
2018-Jun-15 05:00N 26°04' W 080°07'0 0.0
2018-Jun-15 04:30N 26°04' W 080°07'0 0.0
2018-Jun-15 04:00N 26°04' W 080°07'0 0.0
2018-Jun-15 03:30N 26°04' W 080°07'0 0.0
2018-Jun-15 03:01N 26°04' W 080°07'0 0.0
2018-Jun-15 02:31N 26°04' W 080°07'0 0.0
2018-Jun-15 02:01N 26°04' W 080°07'0 0.0
2018-Jun-15 01:31N 26°04' W 080°07'0 0.0
2018-Jun-15 01:00N 26°04' W 080°07'0 0.0
2018-Jun-15 00:31N 26°04' W 080°07'0 0.0
2018-Jun-15 00:00N 26°04' W 080°07'1 2.6
2018-Jun-14 23:31N 26°06' W 080°07'0 0.1
2018-Jun-14 23:01N 26°06' W 080°07'0 0.0
2018-Jun-14 22:31N 26°06' W 080°07'0 0.0
2018-Jun-14 22:01N 26°06' W 080°07'0 0.0
2018-Jun-14 21:30N 26°06' W 080°07'0 0.0
2018-Jun-14 21:01N 26°06' W 080°07'0 0.0
2018-Jun-14 20:30N 26°06' W 080°07'0 0.0
2018-Jun-14 20:00N 26°06' W 080°07'0 0.0
2018-Jun-14 19:30N 26°06' W 080°07'0 0.0
2018-Jun-14 19:00N 26°06' W 080°07'0 0.0
2018-Jun-14 18:29N 26°06' W 080°07'0 0.0
2018-Jun-14 18:00N 26°06' W 080°07'0 0.0
2018-Jun-14 17:30N 26°06' W 080°07'0 0.0
2018-Jun-14 17:00N 26°06' W 080°07'0 0.0
2018-Jun-14 16:30N 26°06' W 080°07'0 0.0
2018-Jun-14 16:00N 26°06' W 080°07'0 0.0
2018-Jun-14 15:30N 26°06' W 080°07'0 0.0
2018-Jun-14 14:59N 26°06' W 080°07'0 0.0
2018-Jun-14 14:30N 26°06' W 080°07'0 0.0
2018-Jun-14 14:00N 26°06' W 080°07'0 0.0
2018-Jun-14 13:30N 26°06' W 080°07'0 0.0
2018-Jun-14 13:00N 26°06' W 080°07'0 0.0
2018-Jun-14 12:30N 26°06' W 080°07'0 0.0
2018-Jun-14 12:01N 26°06' W 080°07'0 0.0
2018-Jun-14 11:31N 26°06' W 080°07'2 4.2
2018-Jun-14 11:01N 26°06' W 080°05'1 2.2
2018-Jun-14 10:30N 26°07' W 080°05'0 0.1
2018-Jun-14 10:00N 26°07' W 080°05'0 0.0
2018-Jun-14 09:30N 26°07' W 080°05'0 0.0
2018-Jun-14 09:00N 26°07' W 080°05'0 0.0
2018-Jun-14 08:30N 26°07' W 080°05'0 0.0
2018-Jun-14 08:00N 26°07' W 080°05'0 0.0
2018-Jun-14 07:30N 26°07' W 080°05'0 0.0
2018-Jun-14 07:00N 26°07' W 080°05'0 0.0
2018-Jun-14 06:30N 26°07' W 080°05'0 0.0
2018-Jun-14 06:00N 26°07' W 080°05'0 0.0
2018-Jun-14 05:21N 26°07' W 080°05'0 0.1
2018-Jun-14 04:51N 26°07' W 080°05'0 0.0
2018-Jun-14 04:21N 26°07' W 080°05'0 0.0
2018-Jun-14 03:51N 26°07' W 080°05'0 0.0
2018-Jun-14 03:24N 26°07' W 080°05'0 0.0
2018-Jun-14 02:48N 26°07' W 080°05'0 0.0
2018-Jun-14 02:23N 26°07' W 080°05'0 0.0
2018-Jun-14 01:53N 26°07' W 080°05'0 0.0
2018-Jun-14 01:23N 26°07' W 080°05'0 0.0
2018-Jun-14 00:53N 26°07' W 080°05'0 0.0
2018-Jun-14 00:23N 26°07' W 080°05'0 0.0
2018-Jun-13 23:53N 26°07' W 080°05'0 0.0
2018-Jun-13 23:23N 26°07' W 080°05'0 0.0
2018-Jun-13 22:56N 26°07' W 080°05'0 0.0
2018-Jun-13 22:26N 26°07' W 080°05'0 0.0
2018-Jun-13 21:56N 26°07' W 080°05'0 0.0
2018-Jun-13 21:26N 26°07' W 080°05'0 0.0
2018-Jun-13 20:56N 26°07' W 080°05'0 0.0
2018-Jun-13 20:26N 26°07' W 080°05'0 0.0
2018-Jun-13 19:56N 26°07' W 080°05'0 0.0
2018-Jun-13 19:26N 26°07' W 080°05'0 0.0
2018-Jun-13 18:56N 26°07' W 080°05'0 0.0
2018-Jun-13 18:29N 26°07' W 080°05'0 0.0
2018-Jun-13 17:59N 26°07' W 080°05'0 0.0
2018-Jun-13 17:29N 26°07' W 080°05'0 0.0
2018-Jun-13 16:59N 26°07' W 080°05'0 0.0
2018-Jun-13 16:29N 26°07' W 080°04'0 0.0
2018-Jun-13 15:59N 26°07' W 080°05'0 0.0
2018-Jun-13 15:29N 26°07' W 080°04'0 0.0
2018-Jun-13 14:59N 26°07' W 080°05'1 2.4
2018-Jun-13 14:30N 26°06' W 080°04'510.5
2018-Jun-13 14:00N 26°01' W 080°01'611.9
2018-Jun-13 13:30N 25°55' W 080°02'612.4
2018-Jun-13 13:00N 25°49' W 080°01'611.8
2018-Jun-13 12:31N 25°43' W 080°00'612.0
2018-Jun-13 12:00N 25°37' W 079°60'612.0
2018-Jun-13 11:30N 25°31' W 080°00'612.0
2018-Jun-13 11:00N 25°25' W 080°00'  

Dump ship's entire track history